Arona, Pennsylvania
Current Conditions -  °F | °C
As of 8:50 AM on Tuesday 27 Jan 2015 (Local Time) from KLBE Reporting Station
Light Snow Light Snow  
Wind Chill: 10°   Ceiling: 1400
Heat Index: 19°   Visibility: 2mi
Dew Point: 18°   Wind: 7mph
Humidity: 93%   Direction: 290°WNW
Pressure: 29.92"   Gusts: NA
Location:  40.27°N, 79.66°W
Report Text: KLBE 271350Z 29006KT 2SM -SN OVC014 M07/M08 A2992
Loading
Personal Weather Stations






























Interactive Weather Map New forecast layout! Learn more

10-Day Weather Forecast

Advertisements
Track Severe Weather on mobile